sensor_id;sensor_type;location;lat;lon;timestamp;pressure;altitude;pressure_sealevel;temperature;humidity
26719;BME280;14326;50.794;6.060;2022-08-19T00:00:50;99423.47;;;17.52;100.00
26719;BME280;14326;50.794;6.060;2022-08-19T00:03:17;99424.41;;;17.50;100.00
26719;BME280;14326;50.794;6.060;2022-08-19T00:05:44;99430.66;;;17.50;100.00
26719;BME280;14326;50.794;6.060;2022-08-19T00:08:10;99423.47;;;17.51;100.00
26719;BME280;14326;50.794;6.060;2022-08-19T00:10:38;99426.16;;;17.51;100.00
26719;BME280;14326;50.794;6.060;2022-08-19T00:13:05;99426.16;;;17.51;100.00
26719;BME280;14326;50.794;6.060;2022-08-19T00:15:32;99421.69;;;17.51;100.00
26719;BME280;14326;50.794;6.060;2022-08-19T00:17:58;99423.47;;;17.51;100.00
26719;BME280;14326;50.794;6.060;2022-08-19T00:20:25;99420.88;;;17.48;100.00
26719;BME280;14326;50.794;6.060;2022-08-19T00:22:52;99419.09;;;17.47;100.00
26719;BME280;14326;50.794;6.060;2022-08-19T00:25:20;99419.00;;;17.50;100.00
26719;BME280;14326;50.794;6.060;2022-08-19T00:27:48;99414.59;;;17.49;100.00
26719;BME280;14326;50.794;6.060;2022-08-19T00:30:15;99414.59;;;17.47;100.00
26719;BME280;14326;50.794;6.060;2022-08-19T00:32:42;99408.34;;;17.47;100.00
26719;BME280;14326;50.794;6.060;2022-08-19T00:35:09;99407.47;;;17.45;100.00
26719;BME280;14326;50.794;6.060;2022-08-19T00:37:37;99399.41;;;17.45;100.00
26719;BME280;14326;50.794;6.060;2022-08-19T00:40:05;99401.22;;;17.44;100.00
26719;BME280;14326;50.794;6.060;2022-08-19T00:42:32;99404.78;;;17.45;100.00
26719;BME280;14326;50.794;6.060;2022-08-19T00:45:00;99403.00;;;17.44;100.00
26719;BME280;14326;50.794;6.060;2022-08-19T00:47:27;99400.31;;;17.44;100.00
26719;BME280;14326;50.794;6.060;2022-08-19T00:49:56;99401.28;;;17.43;100.00
26719;BME280;14326;50.794;6.060;2022-08-19T00:52:25;99401.28;;;17.43;100.00
26719;BME280;14326;50.794;6.060;2022-08-19T00:54:54;99397.75;;;17.39;100.00
26719;BME280;14326;50.794;6.060;2022-08-19T00:57:26;99397.94;;;17.32;100.00
26719;BME280;14326;50.794;6.060;2022-08-19T00:59:55;99406.06;;;17.29;100.00
26719;BME280;14326;50.794;6.060;2022-08-19T01:02:23;99407.94;;;17.25;100.00
26719;BME280;14326;50.794;6.060;2022-08-19T01:04:50;99407.97;;;17.24;100.00
26719;BME280;14326;50.794;6.060;2022-08-19T01:07:17;99406.19;;;17.23;100.00
26719;BME280;14326;50.794;6.060;2022-08-19T01:09:44;99409.91;;;17.15;100.00
26719;BME280;14326;50.794;6.060;2022-08-19T01:12:11;99406.38;;;17.13;100.00
26719;BME280;14326;50.794;6.060;2022-08-19T01:14:38;99410.94;;;17.08;100.00
26719;BME280;14326;50.794;6.060;2022-08-19T01:17:06;99402.94;;;17.07;100.00
26719;BME280;14326;50.794;6.060;2022-08-19T01:19:37;99405.56;;;17.08;100.00
26719;BME280;14326;50.794;6.060;2022-08-19T01:22:08;99408.31;;;17.07;100.00
26719;BME280;14326;50.794;6.060;2022-08-19T01:24:40;99409.13;;;17.10;100.00
26719;BME280;14326;50.794;6.060;2022-08-19T01:27:07;99410.03;;;17.09;100.00
26719;BME280;14326;50.794;6.060;2022-08-19T01:29:37;99400.16;;;17.10;100.00
26719;BME280;14326;50.794;6.060;2022-08-19T01:32:04;99398.47;;;17.06;100.00
26719;BME280;14326;50.794;6.060;2022-08-19T01:34:31;99410.13;;;17.05;100.00
26719;BME280;14326;50.794;6.060;2022-08-19T01:37:00;99407.31;;;17.12;100.00
26719;BME280;14326;50.794;6.060;2022-08-19T01:39:28;99416.38;;;17.07;100.00
26719;BME280;14326;50.794;6.060;2022-08-19T01:41:56;99411.94;;;17.04;100.00
26719;BME280;14326;50.794;6.060;2022-08-19T01:44:22;99412.00;;;17.01;100.00
26719;BME280;14326;50.794;6.060;2022-08-19T01:46:51;99408.59;;;16.92;100.00
26719;BME280;14326;50.794;6.060;2022-08-19T01:49:20;99414.94;;;16.89;100.00
26719;BME280;14326;50.794;6.060;2022-08-19T01:51:49;99418.53;;;16.88;100.00
26719;BME280;14326;50.794;6.060;2022-08-19T01:54:17;99410.59;;;16.82;100.00
26719;BME280;14326;50.794;6.060;2022-08-19T01:56:44;99411.50;;;16.81;100.00
26719;BME280;14326;50.794;6.060;2022-08-19T01:59:16;99412.47;;;16.78;100.00
26719;BME280;14326;50.794;6.060;2022-08-19T02:01:43;99410.69;;;16.77;100.00
26719;BME280;14326;50.794;6.060;2022-08-19T02:04:10;99408.97;;;16.73;100.00
26719;BME280;14326;50.794;6.060;2022-08-19T02:06:37;99411.63;;;16.75;100.00
26719;BME280;14326;50.794;6.060;2022-08-19T02:09:07;99413.50;;;16.71;100.00
26719;BME280;14326;50.794;6.060;2022-08-19T02:11:36;99416.19;;;16.70;100.00
26719;BME280;14326;50.794;6.060;2022-08-19T02:14:06;99420.69;;;16.69;100.00
26719;BME280;14326;50.794;6.060;2022-08-19T02:16:35;99418.91;;;16.68;100.00
26719;BME280;14326;50.794;6.060;2022-08-19T02:19:03;99418.00;;;16.69;100.00
26719;BME280;14326;50.794;6.060;2022-08-19T02:21:30;99410.91;;;16.67;100.00
26719;BME280;14326;50.794;6.060;2022-08-19T02:23:57;99405.38;;;16.73;100.00
26719;BME280;14326;50.794;6.060;2022-08-19T02:26:24;99409.81;;;16.77;100.00
26719;BME280;14326;50.794;6.060;2022-08-19T02:28:52;99417.06;;;16.72;100.00
26719;BME280;14326;50.794;6.060;2022-08-19T02:31:21;99410.91;;;16.67;100.00
26719;BME280;14326;50.794;6.060;2022-08-19T02:33:50;99411.94;;;16.60;100.00
26719;BME280;14326;50.794;6.060;2022-08-19T02:36:18;99398.56;;;16.54;100.00
26719;BME280;14326;50.794;6.060;2022-08-19T02:38:45;99405.75;;;16.53;100.00
26719;BME280;14326;50.794;6.060;2022-08-19T02:41:15;99410.19;;;16.54;100.00
26719;BME280;14326;50.794;6.060;2022-08-19T02:43:43;99408.41;;;16.55;100.00
26719;BME280;14326;50.794;6.060;2022-08-19T02:46:18;99413.81;;;16.52;100.00
26719;BME280;14326;50.794;6.060;2022-08-19T02:48:47;99421.94;;;16.49;100.00
26719;BME280;14326;50.794;6.060;2022-08-19T02:51:21;99419.28;;;16.46;100.00
26719;BME280;14326;50.794;6.060;2022-08-19T02:53:48;99429.09;;;16.48;100.00
26719;BME280;14326;50.794;6.060;2022-08-19T02:56:15;99430.00;;;16.49;100.00
26719;BME280;14326;50.794;6.060;2022-08-19T02:58:42;99437.16;;;16.48;100.00
26719;BME280;14326;50.794;6.060;2022-08-19T03:01:10;99432.72;;;16.46;100.00
26719;BME280;14326;50.794;6.060;2022-08-19T03:03:37;99435.47;;;16.43;100.00
26719;BME280;14326;50.794;6.060;2022-08-19T03:06:08;99433.72;;;16.38;100.00
26719;BME280;14326;50.794;6.060;2022-08-19T03:08:37;99440.91;;;16.38;100.00
26719;BME280;14326;50.794;6.060;2022-08-19T03:11:04;99433.72;;;16.38;100.00
26719;BME280;14326;50.794;6.060;2022-08-19T03:13:31;99436.53;;;16.32;100.00
26719;BME280;14326;50.794;6.060;2022-08-19T03:15:57;99434.78;;;16.31;100.00
26719;BME280;14326;50.794;6.060;2022-08-19T03:18:24;99434.59;;;16.41;100.00
26719;BME280;14326;50.794;6.060;2022-08-19T03:20:52;99430.91;;;16.48;100.00
26719;BME280;14326;50.794;6.060;2022-08-19T03:23:20;99433.47;;;16.54;100.00
26719;BME280;14326;50.794;6.060;2022-08-19T03:25:51;99436.94;;;16.62;100.00
26719;BME280;14326;50.794;6.060;2022-08-19T03:28:18;99430.50;;;16.72;100.00
26719;BME280;14326;50.794;6.060;2022-08-19T03:30:56;99440.19;;;16.79;100.00
26719;BME280;14326;50.794;6.060;2022-08-19T03:33:28;99437.44;;;16.84;100.00
26719;BME280;14326;50.794;6.060;2022-08-19T03:36:03;99443.63;;;16.87;100.00
26719;BME280;14326;50.794;6.060;2022-08-19T03:38:31;99432.72;;;16.96;100.00
26719;BME280;14326;50.794;6.060;2022-08-19T03:41:02;99437.91;;;17.05;100.00
26719;BME280;14326;50.794;6.060;2022-08-19T03:43:32;99427.03;;;17.11;100.00
26719;BME280;14326;50.794;6.060;2022-08-19T03:46:04;99427.81;;;17.16;100.00
26719;BME280;14326;50.794;6.060;2022-08-19T03:48:31;99424.06;;;17.25;100.00
26719;BME280;14326;50.794;6.060;2022-08-19T03:50:59;99432.06;;;17.28;100.00
26719;BME280;14326;50.794;6.060;2022-08-19T03:53:26;99429.31;;;17.31;100.00
26719;BME280;14326;50.794;6.060;2022-08-19T03:55:53;99431.91;;;17.34;100.00
26719;BME280;14326;50.794;6.060;2022-08-19T03:58:22;99430.13;;;17.35;100.00
26719;BME280;14326;50.794;6.060;2022-08-19T04:00:49;99428.31;;;17.35;100.00
26719;BME280;14326;50.794;6.060;2022-08-19T04:03:16;99437.19;;;17.39;100.00
26719;BME280;14326;50.794;6.060;2022-08-19T04:05:44;99439.84;;;17.40;100.00
26719;BME280;14326;50.794;6.060;2022-08-19T04:08:11;99439.06;;;17.37;100.00
26719;BME280;14326;50.794;6.060;2022-08-19T04:10:38;99439.84;;;17.40;100.00
26719;BME280;14326;50.794;6.060;2022-08-19T04:13:05;99444.25;;;17.44;100.00
26719;BME280;14326;50.794;6.060;2022-08-19T04:15:39;99440.66;;;17.44;100.00
26719;BME280;14326;50.794;6.060;2022-08-19T04:18:07;99432.56;;;17.45;100.00
26719;BME280;14326;50.794;6.060;2022-08-19T04:20:40;99431.59;;;17.49;100.00
26719;BME280;14326;50.794;6.060;2022-08-19T04:23:07;99431.63;;;17.48;100.00
26719;BME280;14326;50.794;6.060;2022-08-19T04:25:38;99443.31;;;17.47;100.00
26719;BME280;14326;50.794;6.060;2022-08-19T04:28:06;99447.69;;;17.51;100.00
26719;BME280;14326;50.794;6.060;2022-08-19T04:30:39;99447.69;;;17.51;100.00
26719;BME280;14326;50.794;6.060;2022-08-19T04:33:07;99448.59;;;17.50;100.00
26719;BME280;14326;50.794;6.060;2022-08-19T04:35:38;99452.28;;;17.46;100.00
26719;BME280;14326;50.794;6.060;2022-08-19T04:38:05;99456.78;;;17.45;100.00
26719;BME280;14326;50.794;6.060;2022-08-19T04:40:32;99451.38;;;17.47;100.00
26719;BME280;14326;50.794;6.060;2022-08-19T04:43:16;99448.81;;;17.41;100.00
26719;BME280;14326;50.794;6.060;2022-08-19T04:45:45;99451.50;;;17.41;100.00
26719;BME280;14326;50.794;6.060;2022-08-19T04:48:12;99456.88;;;17.41;100.00
26719;BME280;14326;50.794;6.060;2022-08-19T04:50:41;99455.00;;;17.44;100.00
26719;BME280;14326;50.794;6.060;2022-08-19T04:53:08;99455.00;;;17.44;100.00
26719;BME280;14326;50.794;6.060;2022-08-19T04:55:39;99449.63;;;17.44;100.00
26719;BME280;14326;50.794;6.060;2022-08-19T04:58:06;99456.78;;;17.44;100.00
26719;BME280;14326;50.794;6.060;2022-08-19T05:00:32;99463.03;;;17.47;100.00
26719;BME280;14326;50.794;6.060;2022-08-19T05:03:01;99470.19;;;17.48;100.00
26719;BME280;14326;50.794;6.060;2022-08-19T05:05:27;99473.69;;;17.50;100.00
26719;BME280;14326;50.794;6.060;2022-08-19T05:07:57;99478.19;;;17.50;100.00
26719;BME280;14326;50.794;6.060;2022-08-19T05:10:24;99481.75;;;17.52;100.00
26719;BME280;14326;50.794;6.060;2022-08-19T05:12:50;99483.41;;;17.57;100.00
26719;BME280;14326;50.794;6.060;2022-08-19T05:15:17;99478.91;;;17.58;100.00
26719;BME280;14326;50.794;6.060;2022-08-19T05:17:44;99492.38;;;17.58;100.00
26719;BME280;14326;50.794;6.060;2022-08-19T05:20:32;99487.09;;;17.53;100.00
26719;BME280;14326;50.794;6.060;2022-08-19T05:23:16;99495.16;;;17.53;100.00
26719;BME280;14326;50.794;6.060;2022-08-19T05:25:43;99487.13;;;17.52;100.00
26719;BME280;14326;50.794;6.060;2022-08-19T05:28:10;99493.31;;;17.55;100.00
26719;BME280;14326;50.794;6.060;2022-08-19T05:30:36;99496.06;;;17.54;100.00
26719;BME280;14326;50.794;6.060;2022-08-19T05:33:03;99496.84;;;17.59;100.00
26719;BME280;14326;50.794;6.060;2022-08-19T05:35:29;99495.81;;;17.66;100.00
26719;BME280;14326;50.794;6.060;2022-08-19T05:37:57;99493.91;;;17.71;100.00
26719;BME280;14326;50.794;6.060;2022-08-19T05:40:24;99491.97;;;17.78;100.00
26719;BME280;14326;50.794;6.060;2022-08-19T05:42:51;99489.06;;;17.87;100.00
26719;BME280;14326;50.794;6.060;2022-08-19T05:45:18;99488.91;;;17.94;100.00
26719;BME280;14326;50.794;6.060;2022-08-19T05:47:46;99484.06;;;18.09;100.00
26719;BME280;14326;50.794;6.060;2022-08-19T05:50:12;99477.44;;;18.25;100.00
26719;BME280;14326;50.794;6.060;2022-08-19T05:52:39;99473.56;;;18.36;100.00
26719;BME280;14326;50.794;6.060;2022-08-19T05:55:08;99477.75;;;18.48;100.00
26719;BME280;14326;50.794;6.060;2022-08-19T05:57:35;99482.56;;;18.72;100.00
26719;BME280;14326;50.794;6.060;2022-08-19T06:00:03;99477.88;;;18.79;100.00
26719;BME280;14326;50.794;6.060;2022-08-19T06:02:33;99480.47;;;18.84;100.00
26719;BME280;14326;50.794;6.060;2022-08-19T06:05:00;99488.66;;;18.79;100.00
26719;BME280;14326;50.794;6.060;2022-08-19T06:07:27;99486.22;;;18.68;100.00
26719;BME280;14326;50.794;6.060;2022-08-19T06:09:54;99486.34;;;18.64;100.00
26719;BME280;14326;50.794;6.060;2022-08-19T06:12:22;99485.66;;;18.56;100.00
26719;BME280;14326;50.794;6.060;2022-08-19T06:14:54;99486.72;;;18.49;100.00
26719;BME280;14326;50.794;6.060;2022-08-19T06:17:21;99490.31;;;18.48;100.00
26719;BME280;14326;50.794;6.060;2022-08-19T06:19:50;99492.03;;;18.50;100.00
26719;BME280;14326;50.794;6.060;2022-08-19T06:22:17;99493.69;;;18.57;100.00
26719;BME280;14326;50.794;6.060;2022-08-19T06:24:44;99482.38;;;18.78;100.00
26719;BME280;14326;50.794;6.060;2022-08-19T06:27:10;99484.63;;;18.95;98.02
26719;BME280;14326;50.794;6.060;2022-08-19T06:29:38;99486.50;;;19.56;94.56
26719;BME280;14326;50.794;6.060;2022-08-19T06:32:05;99498.38;;;19.80;94.66
26719;BME280;14326;50.794;6.060;2022-08-19T06:34:33;99494.28;;;20.54;90.45
26719;BME280;14326;50.794;6.060;2022-08-19T06:37:01;99497.94;;;20.23;87.06
26719;BME280;14326;50.794;6.060;2022-08-19T06:39:29;99501.38;;;20.28;87.65
26719;BME280;14326;50.794;6.060;2022-08-19T06:41:58;99500.94;;;20.70;86.59
26719;BME280;14326;50.794;6.060;2022-08-19T06:44:27;99506.69;;;20.85;84.93
26719;BME280;14326;50.794;6.060;2022-08-19T06:46:56;99513.41;;;21.00;83.96
26719;BME280;14326;50.794;6.060;2022-08-19T06:49:23;99516.06;;;21.02;83.42
26719;BME280;14326;50.794;6.060;2022-08-19T06:51:51;99512.53;;;21.00;83.86
26719;BME280;14326;50.794;6.060;2022-08-19T06:54:18;99506.13;;;21.02;83.97
26719;BME280;14326;50.794;6.060;2022-08-19T06:56:45;99509.78;;;21.01;85.07
26719;BME280;14326;50.794;6.060;2022-08-19T06:59:14;99516.34;;;20.94;84.63
26719;BME280;14326;50.794;6.060;2022-08-19T07:01:42;99514.47;;;20.96;84.02
26719;BME280;14326;50.794;6.060;2022-08-19T07:04:15;99522.66;;;20.93;84.68
26719;BME280;14326;50.794;6.060;2022-08-19T07:06:43;99538.81;;;20.96;85.13
26719;BME280;14326;50.794;6.060;2022-08-19T07:09:11;99527.31;;;20.90;85.45
26719;BME280;14326;50.794;6.060;2022-08-19T07:11:38;99520.91;;;20.92;85.59
26719;BME280;14326;50.794;6.060;2022-08-19T07:14:05;99522.03;;;21.11;85.33
26719;BME280;14326;50.794;6.060;2022-08-19T07:16:31;99535.25;;;20.94;85.56
26719;BME280;14326;50.794;6.060;2022-08-19T07:18:58;99539.63;;;20.98;86.46
26719;BME280;14326;50.794;6.060;2022-08-19T07:21:29;99541.84;;;20.85;86.09
26719;BME280;14326;50.794;6.060;2022-08-19T07:23:56;99548.16;;;20.86;87.14
26719;BME280;14326;50.794;6.060;2022-08-19T07:26:26;99553.47;;;20.89;86.97
26719;BME280;14326;50.794;6.060;2022-08-19T07:28:54;99540.03;;;21.12;85.50
26719;BME280;14326;50.794;6.060;2022-08-19T07:31:25;99547.19;;;21.15;86.38
26719;BME280;14326;50.794;6.060;2022-08-19T07:33:54;99551.28;;;21.00;86.86
26719;BME280;14326;50.794;6.060;2022-08-19T07:36:23;99560.44;;;20.96;86.07
26719;BME280;14326;50.794;6.060;2022-08-19T07:38:52;99557.44;;;20.79;85.33
26719;BME280;14326;50.794;6.060;2022-08-19T07:41:23;99560.41;;;20.70;85.04
26719;BME280;14326;50.794;6.060;2022-08-19T07:43:51;99554.59;;;20.56;85.82
26719;BME280;14326;50.794;6.060;2022-08-19T07:46:18;99569.34;;;20.44;86.55
26719;BME280;14326;50.794;6.060;2022-08-19T07:48:48;99571.13;;;20.45;87.37
26719;BME280;14326;50.794;6.060;2022-08-19T07:51:18;99569.13;;;20.52;87.73
26719;BME280;14326;50.794;6.060;2022-08-19T07:53:45;99569.72;;;20.61;86.50
26719;BME280;14326;50.794;6.060;2022-08-19T07:56:14;99576.69;;;20.68;85.50
26719;BME280;14326;50.794;6.060;2022-08-19T07:58:42;99572.84;;;20.75;84.49
26719;BME280;14326;50.794;6.060;2022-08-19T08:01:11;99587.16;;;20.79;85.77
26719;BME280;14326;50.794;6.060;2022-08-19T08:03:38;99589.94;;;20.76;86.29
26719;BME280;14326;50.794;6.060;2022-08-19T08:06:22;99585.63;;;20.70;85.99
26719;BME280;14326;50.794;6.060;2022-08-19T08:09:08;99581.00;;;20.74;85.80
26719;BME280;14326;50.794;6.060;2022-08-19T08:11:46;99583.66;;;20.75;85.15
26719;BME280;14326;50.794;6.060;2022-08-19T08:14:14;99580.19;;;20.98;85.33
26719;BME280;14326;50.794;6.060;2022-08-19T08:16:41;99577.94;;;21.11;83.76
26719;BME280;14326;50.794;6.060;2022-08-19T08:19:09;99582.59;;;21.34;82.67
26719;BME280;14326;50.794;6.060;2022-08-19T08:21:36;99573.88;;;21.50;81.33
26719;BME280;14326;50.794;6.060;2022-08-19T08:24:03;99576.75;;;21.71;81.30
26719;BME280;14326;50.794;6.060;2022-08-19T08:26:29;99579.94;;;21.82;80.18
26719;BME280;14326;50.794;6.060;2022-08-19T08:28:57;99588.13;;;21.80;79.76
26719;BME280;14326;50.794;6.060;2022-08-19T08:31:24;99584.03;;;21.93;79.96
26719;BME280;14326;50.794;6.060;2022-08-19T08:33:51;99588.06;;;22.07;78.88
26719;BME280;14326;50.794;6.060;2022-08-19T08:36:17;99579.72;;;22.13;79.26
26719;BME280;14326;50.794;6.060;2022-08-19T08:38:44;99583.50;;;22.09;78.52
26719;BME280;14326;50.794;6.060;2022-08-19T08:41:18;99584.47;;;22.06;79.60
26719;BME280;14326;50.794;6.060;2022-08-19T08:43:50;99596.81;;;21.90;79.63
26719;BME280;14326;50.794;6.060;2022-08-19T08:46:22;99596.16;;;21.83;80.13
26719;BME280;14326;50.794;6.060;2022-08-19T08:48:53;99597.66;;;21.67;80.02
26719;BME280;14326;50.794;6.060;2022-08-19T08:51:25;99600.84;;;21.53;80.85
26719;BME280;14326;50.794;6.060;2022-08-19T08:53:53;99600.00;;;21.51;81.01
26719;BME280;14326;50.794;6.060;2022-08-19T08:56:22;99592.50;;;21.59;79.71
26719;BME280;14326;50.794;6.060;2022-08-19T08:58:56;99599.41;;;21.68;78.84
26719;BME280;14326;50.794;6.060;2022-08-19T09:01:25;99602.91;;;21.72;78.24
26719;BME280;14326;50.794;6.060;2022-08-19T09:03:53;99591.13;;;21.73;79.98
26719;BME280;14326;50.794;6.060;2022-08-19T09:06:26;99582.72;;;21.80;78.33
26719;BME280;14326;50.794;6.060;2022-08-19T09:09:00;99592.66;;;22.04;77.95
26719;BME280;14326;50.794;6.060;2022-08-19T09:11:40;99586.75;;;22.40;77.52
26719;BME280;14326;50.794;6.060;2022-08-19T09:14:32;99578.97;;;22.77;76.12
26719;BME280;14326;50.794;6.060;2022-08-19T09:17:00;99580.72;;;23.00;73.41
26719;BME280;14326;50.794;6.060;2022-08-19T09:19:29;99586.81;;;23.05;73.71
26719;BME280;14326;50.794;6.060;2022-08-19T09:21:56;99579.03;;;23.18;73.56
26719;BME280;14326;50.794;6.060;2022-08-19T09:24:25;99576.16;;;23.43;71.42
26719;BME280;14326;50.794;6.060;2022-08-19T09:26:52;99583.28;;;23.45;71.87
26719;BME280;14326;50.794;6.060;2022-08-19T09:29:20;99579.91;;;23.81;70.60
26719;BME280;14326;50.794;6.060;2022-08-19T09:31:46;99579.25;;;24.15;69.16
26719;BME280;14326;50.794;6.060;2022-08-19T09:34:14;99580.91;;;24.19;67.13
26719;BME280;14326;50.794;6.060;2022-08-19T09:36:41;99588.25;;;24.35;69.01
26719;BME280;14326;50.794;6.060;2022-08-19T09:39:08;99582.81;;;24.54;68.22
26719;BME280;14326;50.794;6.060;2022-08-19T09:41:34;99578.09;;;24.58;68.64
26719;BME280;14326;50.794;6.060;2022-08-19T09:44:01;99568.25;;;24.74;66.61
26719;BME280;14326;50.794;6.060;2022-08-19T09:46:29;99568.81;;;24.80;66.09
26719;BME280;14326;50.794;6.060;2022-08-19T09:48:58;99569.56;;;24.84;66.48
26719;BME280;14326;50.794;6.060;2022-08-19T09:51:27;99568.91;;;24.79;64.49
26719;BME280;14326;50.794;6.060;2022-08-19T09:53:58;99577.25;;;24.38;66.89
26719;BME280;14326;50.794;6.060;2022-08-19T09:56:25;99576.00;;;24.27;67.16
26719;BME280;14326;50.794;6.060;2022-08-19T09:58:51;99572.41;;;24.26;67.04
26719;BME280;14326;50.794;6.060;2022-08-19T10:01:20;99567.97;;;24.03;67.05
26719;BME280;14326;50.794;6.060;2022-08-19T10:03:49;99569.63;;;23.87;67.54
26719;BME280;14326;50.794;6.060;2022-08-19T10:06:16;99572.69;;;24.00;68.00
26719;BME280;14326;50.794;6.060;2022-08-19T10:08:45;99576.50;;;24.35;66.00
26719;BME280;14326;50.794;6.060;2022-08-19T10:11:13;99575.25;;;24.23;66.37
26719;BME280;14326;50.794;6.060;2022-08-19T10:13:41;99565.25;;;24.03;66.48
26719;BME280;14326;50.794;6.060;2022-08-19T10:16:11;99563.69;;;23.98;67.81
26719;BME280;14326;50.794;6.060;2022-08-19T10:18:38;99573.34;;;24.05;66.88
26719;BME280;14326;50.794;6.060;2022-08-19T10:21:10;99561.91;;;24.17;66.07
26719;BME280;14326;50.794;6.060;2022-08-19T10:23:38;99567.31;;;24.37;65.94
26719;BME280;14326;50.794;6.060;2022-08-19T10:26:07;99554.38;;;24.61;63.28
26719;BME280;14326;50.794;6.060;2022-08-19T10:28:33;99548.75;;;24.83;62.58
26719;BME280;14326;50.794;6.060;2022-08-19T10:31:07;99552.06;;;24.71;63.12
26719;BME280;14326;50.794;6.060;2022-08-19T10:33:34;99557.09;;;24.61;62.30
26719;BME280;14326;50.794;6.060;2022-08-19T10:36:03;99564.97;;;24.48;62.88
26719;BME280;14326;50.794;6.060;2022-08-19T10:38:30;99554.28;;;24.63;63.81
26719;BME280;14326;50.794;6.060;2022-08-19T10:40:57;99563.41;;;24.62;62.34
26719;BME280;14326;50.794;6.060;2022-08-19T10:43:25;99557.56;;;24.88;63.63
26719;BME280;14326;50.794;6.060;2022-08-19T10:45:52;99555.06;;;25.02;61.47
26719;BME280;14326;50.794;6.060;2022-08-19T10:48:21;99553.63;;;25.12;60.17
26719;BME280;14326;50.794;6.060;2022-08-19T10:50:48;99549.47;;;25.22;62.08
26719;BME280;14326;50.794;6.060;2022-08-19T10:53:32;99560.25;;;25.07;61.00
26719;BME280;14326;50.794;6.060;2022-08-19T10:55:59;99563.06;;;25.05;62.48
26719;BME280;14326;50.794;6.060;2022-08-19T10:58:44;99557.06;;;25.33;60.39
26719;BME280;14326;50.794;6.060;2022-08-19T11:01:11;99547.16;;;25.49;59.24
26719;BME280;14326;50.794;6.060;2022-08-19T11:03:37;99554.50;;;25.47;59.91
26719;BME280;14326;50.794;6.060;2022-08-19T11:06:06;99551.09;;;25.61;59.59
26719;BME280;14326;50.794;6.060;2022-08-19T11:08:33;99546.75;;;25.74;59.58
26719;BME280;14326;50.794;6.060;2022-08-19T11:11:04;99544.84;;;25.59;60.14
26719;BME280;14326;50.794;6.060;2022-08-19T11:13:37;99549.16;;;25.63;59.20
26719;BME280;14326;50.794;6.060;2022-08-19T11:16:08;99541.78;;;25.31;59.03
26719;BME280;14326;50.794;6.060;2022-08-19T11:18:39;99534.63;;;25.45;59.53
26719;BME280;14326;50.794;6.060;2022-08-19T11:21:08;99550.84;;;25.48;61.31
26719;BME280;14326;50.794;6.060;2022-08-19T11:23:36;99545.41;;;25.65;58.83
26719;BME280;14326;50.794;6.060;2022-08-19T11:26:03;99544.38;;;25.68;60.22
26719;BME280;14326;50.794;6.060;2022-08-19T11:28:29;99550.16;;;25.95;58.73
26719;BME280;14326;50.794;6.060;2022-08-19T11:30:56;99551.94;;;26.12;57.62
26719;BME280;14326;50.794;6.060;2022-08-19T11:33:24;99544.03;;;26.23;57.06
26719;BME280;14326;50.794;6.060;2022-08-19T11:35:52;99546.47;;;26.29;56.69
26719;BME280;14326;50.794;6.060;2022-08-19T11:38:19;99540.69;;;26.18;55.48
26719;BME280;14326;50.794;6.060;2022-08-19T11:40:54;99541.78;;;26.15;56.35
26719;BME280;14326;50.794;6.060;2022-08-19T11:43:20;99546.78;;;26.23;56.35
26719;BME280;14326;50.794;6.060;2022-08-19T11:45:47;99528.78;;;26.52;56.76
26719;BME280;14326;50.794;6.060;2022-08-19T11:48:14;99539.69;;;26.52;55.88
26719;BME280;14326;50.794;6.060;2022-08-19T11:50:42;99534.13;;;26.69;56.38
26719;BME280;14326;50.794;6.060;2022-08-19T11:53:09;99532.13;;;26.88;53.63
26719;BME280;14326;50.794;6.060;2022-08-19T11:55:37;99536.44;;;26.92;54.50
26719;BME280;14326;50.794;6.060;2022-08-19T11:58:04;99534.06;;;26.86;54.18
26719;BME280;14326;50.794;6.060;2022-08-19T12:00:31;99529.66;;;26.52;55.64
26719;BME280;14326;50.794;6.060;2022-08-19T12:02:59;99524.91;;;26.71;54.42
26719;BME280;14326;50.794;6.060;2022-08-19T12:05:25;99531.84;;;26.77;52.49
26719;BME280;14326;50.794;6.060;2022-08-19T12:07:54;99525.06;;;27.00;52.63
26719;BME280;14326;50.794;6.060;2022-08-19T12:10:21;99518.59;;;27.16;52.37
26719;BME280;14326;50.794;6.060;2022-08-19T12:12:49;99525.38;;;27.25;52.25
26719;BME280;14326;50.794;6.060;2022-08-19T12:15:15;99519.03;;;27.24;51.91
26719;BME280;14326;50.794;6.060;2022-08-19T12:17:42;99527.28;;;27.39;51.49
26719;BME280;14326;50.794;6.060;2022-08-19T12:20:10;99538.66;;;26.85;51.03
26719;BME280;14326;50.794;6.060;2022-08-19T12:22:39;99520.09;;;26.61;50.74
26719;BME280;14326;50.794;6.060;2022-08-19T12:25:09;99521.41;;;26.54;49.73
26719;BME280;14326;50.794;6.060;2022-08-19T12:27:36;99522.91;;;26.59;48.19
26719;BME280;14326;50.794;6.060;2022-08-19T12:30:03;99510.03;;;26.77;49.47
26719;BME280;14326;50.794;6.060;2022-08-19T12:32:30;99506.25;;;26.95;49.34
26719;BME280;14326;50.794;6.060;2022-08-19T12:34:56;99508.84;;;27.12;49.59
26719;BME280;14326;50.794;6.060;2022-08-19T12:37:23;99506.16;;;27.26;49.68
26719;BME280;14326;50.794;6.060;2022-08-19T12:39:49;99499.38;;;27.48;48.57
26719;BME280;14326;50.794;6.060;2022-08-19T12:42:18;99498.16;;;27.67;47.28
26719;BME280;14326;50.794;6.060;2022-08-19T12:44:47;99497.88;;;27.72;47.74
26719;BME280;14326;50.794;6.060;2022-08-19T12:47:13;99495.63;;;27.64;47.99
26719;BME280;14326;50.794;6.060;2022-08-19T12:49:41;99501.28;;;27.76;48.63
26719;BME280;14326;50.794;6.060;2022-08-19T12:52:09;99493.22;;;27.44;47.70
26719;BME280;14326;50.794;6.060;2022-08-19T12:54:36;99498.78;;;27.13;49.70
26719;BME280;14326;50.794;6.060;2022-08-19T12:57:05;99503.50;;;27.25;50.79
26719;BME280;14326;50.794;6.060;2022-08-19T12:59:34;99484.31;;;27.41;49.96
26719;BME280;14326;50.794;6.060;2022-08-19T13:02:02;99493.47;;;27.69;49.62